Terminal Aerodrome Forecast
Issued by NWS Grand Forks, ND

Home | Current Version | Previous Version | Text Only | Print | Product List | Glossary On
Versions: 1 2 3 4 5 6 7 8 9 10 11 12 13 14 15 16
000
FTUS43 KFGF 230520
TAFFAR
TAF
KFAR 230520Z 2306/2406 33015G23KT P6SM BKN015
     FM231200 34009KT P6SM OVC015
     FM231500 34009KT P6SM OVC015
     FM231800 36008KT P6SM OVC020
     FM240300 02009KT P6SM VCSH OVC015=

USA.gov is the U.S. government's official web portal to all federal, state and local government web resources and services.